Time;durP1;ratioP1;P1;durP2;ratioP2;P2;SDS_P1;SDS_P2;PMS_P1;PMS_P2;Temp;Humidity;BMP_temperature;BMP_pressure;BME280_temperature;BME280_humidity;BME280_pressure;Samples;Min_cycle;Max_cycle;Signal;HPM_P1;HPM_P2
2023/03/07 00:01:43;;;;;;;15.80;13.80;;;6.50;83.60;;;;;;10505797;28;20663;-79
2023/03/07 00:06:45;;;;;;;14.73;13.33;;;6.50;83.10;;;;;;10486831;28;20220;-78
2023/03/07 00:11:49;;;;;;;13.60;12.10;;;6.50;83.20;;;;;;10496142;28;20190;-79
2023/03/07 00:16:54;;;;;;;13.33;11.97;;;6.50;82.30;;;;;;10477048;28;20209;-79
2023/03/07 00:21:56;;;;;;;12.67;11.37;;;6.40;82.60;;;;;;10517682;28;20217;-77
2023/03/07 00:26:59;;;;;;;15.23;12.60;;;6.40;82.70;;;;;;10494998;28;20226;-78
2023/03/07 00:32:02;;;;;;;14.00;12.50;;;6.40;83.30;;;;;;10481685;28;20657;-78
2023/03/07 00:37:04;;;;;;;14.10;12.63;;;6.40;83.60;;;;;;10466902;28;20233;-80
2023/03/07 00:42:07;;;;;;;13.77;12.53;;;6.40;83.00;;;;;;10529241;28;20241;-80
2023/03/07 00:47:10;;;;;;;13.87;12.50;;;6.50;83.20;;;;;;10481732;28;20735;-81
2023/03/07 00:52:15;;;;;;;14.13;12.73;;;6.50;83.40;;;;;;10506934;28;20203;-78
2023/03/07 00:57:18;;;;;;;13.53;11.80;;;6.50;83.70;;;;;;10519996;28;20220;-80
2023/03/07 01:02:21;;;;;;;13.67;11.43;;;6.50;81.90;;;;;;10474608;28;20695;-78
2023/03/07 01:07:23;;;;;;;11.87;10.77;;;6.60;80.90;;;;;;10504419;28;20268;-77
2023/03/07 01:12:27;;;;;;;13.57;12.20;;;6.50;81.00;;;;;;10513759;28;20194;-77
2023/03/07 01:17:29;;;;;;;12.90;11.63;;;6.40;81.60;;;;;;10513086;28;20251;-78
2023/03/07 01:22:31;;;;;;;13.60;12.13;;;6.40;81.20;;;;;;10547361;28;20246;-78
2023/03/07 01:27:35;;;;;;;12.80;11.50;;;6.40;81.20;;;;;;10490578;28;20301;-78
2023/03/07 01:32:37;;;;;;;16.30;12.23;;;6.40;81.60;;;;;;10507391;28;20193;-78
2023/03/07 01:37:40;;;;;;;12.77;11.57;;;6.40;82.30;;;;;;10518264;28;20224;-79
2023/03/07 01:42:45;;;;;;;11.80;10.60;;;6.50;82.50;;;;;;10491964;28;20719;-78
2023/03/07 01:47:48;;;;;;;12.20;11.00;;;6.50;82.30;;;;;;10501420;28;20266;-78
2023/03/07 01:52:54;;;;;;;12.13;10.93;;;6.60;80.70;;;;;;10504686;28;20256;-79
2023/03/07 01:58:00;;;;;;;12.73;11.50;;;6.60;80.70;;;;;;10536591;28;20698;-79
2023/03/07 02:03:10;;;;;;;11.07;9.97;;;6.60;81.30;;;;;;10513823;28;20245;-79
2023/03/07 02:08:18;;;;;;;13.43;12.13;;;6.70;80.60;;;;;;10500010;28;20227;-78
2023/03/07 02:13:21;;;;;;;12.30;11.17;;;6.70;81.50;;;;;;10503340;28;20689;-78
2023/03/07 02:18:26;;;;;;;11.90;10.70;;;6.70;81.20;;;;;;10495677;28;20224;-79
2023/03/07 02:23:39;;;;;;;11.37;10.30;;;6.70;81.40;;;;;;10523083;28;20251;-79
2023/03/07 02:28:44;;;;;;;11.57;10.47;;;6.70;81.20;;;;;;10484042;28;20229;-78
2023/03/07 02:33:46;;;;;;;13.03;11.73;;;6.70;80.70;;;;;;10521964;28;20207;-78
2023/03/07 02:38:50;;;;;;;12.20;11.00;;;6.70;81.00;;;;;;10483811;28;20224;-78
2023/03/07 02:43:55;;;;;;;13.53;12.23;;;6.70;80.80;;;;;;10550488;28;20266;-79
2023/03/07 02:48:57;;;;;;;13.83;12.43;;;6.70;80.90;;;;;;10511605;28;20220;-79
2023/03/07 02:53:59;;;;;;;12.37;11.17;;;6.70;80.40;;;;;;10510546;28;20201;-79
2023/03/07 02:59:03;;;;;;;13.47;11.60;;;6.60;80.80;;;;;;10494580;28;20277;-80
2023/03/07 03:04:05;;;;;;;13.67;11.80;;;6.60;80.50;;;;;;10497317;28;20209;-79
2023/03/07 03:09:07;;;;;;;15.60;13.50;;;6.60;80.30;;;;;;10482651;28;20251;-78
2023/03/07 03:14:11;;;;;;;13.80;12.40;;;6.60;80.30;;;;;;10506641;28;20688;-78
2023/03/07 03:19:13;;;;;;;9.80;8.90;;;6.50;79.90;;;;;;10492016;28;20320;-78
2023/03/07 03:24:17;;;;;;;14.03;12.63;;;6.50;80.60;;;;;;10508383;28;20206;-79
2023/03/07 03:29:22;;;;;;;13.97;12.57;;;6.50;80.30;;;;;;10475043;28;20217;-78
2023/03/07 03:34:24;;;;;;;14.40;13.00;;;6.50;80.90;;;;;;10505278;28;20204;-78
2023/03/07 03:39:27;;;;;;;14.23;12.93;;;6.50;81.10;;;;;;10509750;28;20229;-79
2023/03/07 03:44:34;;;;;;;13.67;12.30;;;6.50;80.40;;;;;;10489773;28;20208;-78
2023/03/07 03:49:37;;;;;;;14.27;12.80;;;6.50;81.40;;;;;;10505327;28;20223;-78
2023/03/07 03:54:42;;;;;;;15.03;12.93;;;6.60;80.50;;;;;;10511275;28;20201;-78
2023/03/07 03:59:46;;;;;;;13.47;12.17;;;6.60;81.00;;;;;;10525140;28;20230;-79
2023/03/07 04:04:49;;;;;;;12.70;11.33;;;6.60;81.40;;;;;;10505830;28;20212;-79
2023/03/07 04:09:51;;;;;;;15.17;12.60;;;6.60;80.50;;;;;;10508660;28;20216;-78
2023/03/07 04:14:55;;;;;;;14.10;12.67;;;6.50;80.10;;;;;;10509865;28;20546;-78
2023/03/07 04:19:58;;;;;;;16.40;13.03;;;6.50;81.30;;;;;;10489825;28;20764;-78
2023/03/07 04:25:01;;;;;;;14.77;13.27;;;6.50;80.40;;;;;;10502069;28;20203;-79
2023/03/07 04:30:05;;;;;;;15.17;13.67;;;6.50;81.30;;;;;;10484869;28;20231;-78
2023/03/07 04:35:08;;;;;;;13.83;12.53;;;6.50;81.00;;;;;;10509565;28;20241;-77
2023/03/07 04:40:11;;;;;;;15.97;14.30;;;6.50;80.50;;;;;;10491083;28;20681;-78
2023/03/07 04:45:15;;;;;;;16.20;14.60;;;6.50;80.40;;;;;;10499252;28;20202;-78
2023/03/07 04:50:17;;;;;;;14.30;12.90;;;6.50;80.50;;;;;;10476452;28;20217;-78
2023/03/07 04:55:20;;;;;;;15.27;13.67;;;6.60;80.50;;;;;;10477169;28;20201;-78
2023/03/07 05:00:25;;;;;;;15.90;14.20;;;6.60;80.90;;;;;;10489415;28;20219;-78
2023/03/07 05:05:27;;;;;;;14.60;12.60;;;6.70;80.10;;;;;;10493582;28;20205;-77
2023/03/07 05:10:30;;;;;;;15.80;13.33;;;6.60;79.70;;;;;;10503628;28;20273;-77
2023/03/07 05:15:34;;;;;;;15.80;14.10;;;6.60;79.70;;;;;;10502883;28;20277;-77
2023/03/07 05:20:36;;;;;;;14.17;12.77;;;6.50;80.50;;;;;;10469249;28;20228;-78
2023/03/07 05:25:39;;;;;;;15.60;12.80;;;6.50;79.70;;;;;;10489150;28;20431;-78
2023/03/07 05:30:42;;;;;;;16.20;13.60;;;6.40;79.70;;;;;;10524588;28;20223;-78
2023/03/07 05:35:45;;;;;;;14.70;12.80;;;6.40;80.50;;;;;;10519136;28;20201;-78
2023/03/07 05:40:48;;;;;;;13.90;12.60;;;6.40;80.80;;;;;;10508380;28;20686;-79
2023/03/07 05:45:52;;;;;;;14.80;13.20;;;6.40;80.00;;;;;;10492812;28;20205;-78
2023/03/07 05:50:54;;;;;;;13.83;12.40;;;6.50;80.10;;;;;;10470997;28;20221;-78
2023/03/07 05:55:57;;;;;;;13.43;11.83;;;6.50;79.50;;;;;;10463660;28;20259;-77
2023/03/07 06:01:02;;;;;;;18.93;13.00;;;6.40;78.10;;;;;;10492132;28;20215;-78
2023/03/07 06:06:04;;;;;;;15.30;13.10;;;6.40;79.00;;;;;;10483967;28;20212;-79
2023/03/07 06:11:51;;;;;;;13.60;12.03;;;6.40;78.40;;;;;;10523854;28;20259;-79
2023/03/07 06:17:04;;;;;;;18.07;12.90;;;6.30;78.40;;;;;;10478131;28;20219;-77
2023/03/07 06:22:07;;;;;;;14.77;13.20;;;6.30;78.00;;;;;;10487258;28;20231;-77
2023/03/07 06:27:10;;;;;;;13.90;11.80;;;6.30;78.00;;;;;;10518559;28;20216;-77
2023/03/07 06:32:14;;;;;;;13.30;12.00;;;6.30;77.80;;;;;;10500299;28;20233;-78
2023/03/07 06:37:16;;;;;;;13.80;12.40;;;6.30;77.60;;;;;;10489168;28;20235;-78
2023/03/07 06:42:18;;;;;;;14.40;12.57;;;6.40;78.50;;;;;;10514884;28;20216;-78
2023/03/07 06:47:22;;;;;;;13.90;12.53;;;6.40;78.30;;;;;;10515263;28;20710;-77
2023/03/07 06:52:24;;;;;;;13.70;11.67;;;6.40;77.90;;;;;;10495182;28;20247;-79
2023/03/07 06:57:27;;;;;;;13.70;11.00;;;6.40;78.20;;;;;;10489731;28;20641;-80
2023/03/07 07:02:31;;;;;;;13.60;12.20;;;6.50;77.50;;;;;;10516480;28;20585;-79
2023/03/07 07:07:33;;;;;;;14.20;11.80;;;6.50;77.40;;;;;;10539168;28;20222;-79
2023/03/07 07:12:35;;;;;;;12.80;11.03;;;6.60;77.70;;;;;;10537999;28;20673;-79
2023/03/07 07:17:39;;;;;;;12.63;10.60;;;6.80;77.30;;;;;;10511438;28;20220;-79
2023/03/07 07:22:41;;;;;;;14.13;11.43;;;6.90;77.90;;;;;;10498012;28;20706;-79
2023/03/07 07:27:44;;;;;;;14.17;12.20;;;6.90;77.40;;;;;;10506027;28;20236;-79
2023/03/07 07:32:49;;;;;;;12.07;10.87;;;7.00;77.10;;;;;;10514934;28;20561;-79
2023/03/07 07:37:52;;;;;;;13.43;11.23;;;7.10;77.70;;;;;;10478421;28;20240;-79
2023/03/07 07:42:54;;;;;;;13.10;11.77;;;7.20;77.10;;;;;;10478317;28;20233;-79
2023/03/07 07:48:07;;;;;;;12.23;11.00;;;7.40;77.00;;;;;;10515891;28;20217;-79
2023/03/07 07:53:11;;;;;;;12.63;11.33;;;7.50;77.70;;;;;;10523777;28;20227;-80
2023/03/07 07:58:13;;;;;;;11.70;10.43;;;7.60;77.40;;;;;;10495566;28;20227;-79
2023/03/07 08:03:16;;;;;;;12.80;11.50;;;7.80;76.30;;;;;;10472545;28;20221;-79
2023/03/07 08:08:19;;;;;;;12.90;11.57;;;7.90;75.70;;;;;;10533454;28;20305;-80
2023/03/07 08:13:21;;;;;;;13.37;12.07;;;8.00;75.50;;;;;;10524133;28;20191;-78
2023/03/07 08:18:25;;;;;;;12.77;11.57;;;8.10;75.70;;;;;;10515804;28;20424;-80
2023/03/07 08:23:27;;;;;;;14.07;10.03;;;8.20;75.60;;;;;;10514796;28;20307;-79
2023/03/07 08:28:29;;;;;;;12.93;11.63;;;8.30;76.10;;;;;;10514662;28;20250;-80
2023/03/07 08:33:32;;;;;;;13.10;11.43;;;8.40;75.90;;;;;;10496838;28;20203;-80
2023/03/07 08:38:35;;;;;;;12.43;11.13;;;8.60;74.60;;;;;;10512465;28;20229;-79
2023/03/07 08:43:38;;;;;;;11.53;10.43;;;8.70;76.30;;;;;;10514470;28;20319;-78
2023/03/07 08:48:42;;;;;;;11.00;10.00;;;8.90;75.50;;;;;;10497859;28;20273;-79
2023/03/07 08:53:45;;;;;;;11.43;10.20;;;9.00;74.30;;;;;;10509833;28;20212;-79
2023/03/07 08:58:47;;;;;;;11.33;10.20;;;9.10;74.60;;;;;;10516499;28;20222;-78
2023/03/07 09:03:50;;;;;;;10.60;9.50;;;9.20;73.80;;;;;;10498090;28;20242;-79
2023/03/07 09:08:52;;;;;;;11.63;9.63;;;9.10;71.70;;;;;;10523618;28;20751;-79
2023/03/07 09:13:54;;;;;;;10.63;9.60;;;9.10;72.20;;;;;;10516019;28;20202;-79
2023/03/07 09:18:58;;;;;;;9.13;8.30;;;9.10;73.90;;;;;;10514306;28;20595;-79
2023/03/07 09:24:00;;;;;;;9.00;8.20;;;9.10;69.30;;;;;;10521689;28;20217;-79
2023/03/07 09:29:02;;;;;;;12.27;9.77;;;9.20;69.90;;;;;;10532060;28;20223;-80
2023/03/07 09:34:05;;;;;;;9.13;8.23;;;9.20;68.90;;;;;;10531689;28;20196;-80
2023/03/07 09:39:12;;;;;;;8.33;7.63;;;9.30;69.50;;;;;;10524463;28;20233;-79
2023/03/07 09:44:23;;;;;;;11.50;9.20;;;9.30;69.40;;;;;;10514748;28;20221;-80
2023/03/07 09:50:00;;;;;;;10.50;9.10;;;9.30;69.50;;;;;;10463305;28;20229;-79
2023/03/07 09:55:05;;;;;;;9.13;8.33;;;9.30;68.30;;;;;;10477014;28;20226;-79
2023/03/07 10:00:20;;;;;;;8.40;7.47;;;9.30;68.40;;;;;;10521398;28;20773;-79
2023/03/07 10:05:31;;;;;;;9.20;8.27;;;9.20;67.00;;;;;;10480318;28;20239;-80
2023/03/07 10:10:38;;;;;;;8.30;7.60;;;9.00;67.90;;;;;;10535793;28;20216;-77
2023/03/07 10:15:45;;;;;;;10.07;8.33;;;8.90;68.70;;;;;;10498676;28;20227;-79
2023/03/07 10:20:52;;;;;;;10.33;9.03;;;8.90;66.60;;;;;;10518497;28;20213;-78
2023/03/07 10:26:02;;;;;;;9.00;8.10;;;8.80;68.60;;;;;;10494948;28;20243;-78
2023/03/07 10:31:14;;;;;;;8.20;7.37;;;8.80;67.50;;;;;;10537476;28;20247;-79
2023/03/07 10:36:20;;;;;;;9.20;8.30;;;8.80;66.00;;;;;;10535546;28;20199;-79
2023/03/07 10:41:23;;;;;;;8.93;8.13;;;8.80;65.20;;;;;;10475904;28;20221;-80
2023/03/07 10:46:29;;;;;;;11.00;8.40;;;8.80;67.30;;;;;;10539669;28;20209;-80
2023/03/07 10:51:46;;;;;;;10.33;9.23;;;8.80;67.20;;;;;;10495133;28;20207;-80
2023/03/07 10:57:07;;;;;;;10.23;9.13;;;8.80;67.50;;;;;;10475089;28;20240;-79
2023/03/07 11:02:31;;;;;;;9.47;8.47;;;8.70;67.90;;;;;;10542741;28;20223;-79
2023/03/07 11:07:36;;;;;;;10.00;9.00;;;8.70;68.40;;;;;;10491016;28;20820;-80
2023/03/07 11:12:45;;;;;;;8.60;7.80;;;8.70;65.90;;;;;;10503207;28;20204;-79
2023/03/07 11:17:50;;;;;;;9.90;8.90;;;8.60;67.80;;;;;;10523259;28;20220;-80
2023/03/07 11:23:14;;;;;;;10.10;9.20;;;8.60;65.60;;;;;;10441634;28;20224;-80
2023/03/07 11:28:27;;;;;;;9.97;9.03;;;8.60;66.30;;;;;;10445526;28;20229;-80
2023/03/07 11:33:41;;;;;;;9.77;8.77;;;8.60;65.20;;;;;;10539875;28;20600;-79
2023/03/07 11:38:56;;;;;;;9.70;8.80;;;8.50;67.80;;;;;;10507886;28;20277;-79
2023/03/07 11:44:18;;;;;;;12.03;9.23;;;8.60;65.60;;;;;;10488920;28;20305;-79
2023/03/07 11:49:33;;;;;;;10.20;8.50;;;8.70;64.70;;;;;;10534476;28;20258;-78
2023/03/07 11:54:45;;;;;;;9.30;8.30;;;8.60;65.20;;;;;;10491857;28;20200;-78
2023/03/07 12:00:17;;;;;;;8.90;7.90;;;8.60;65.80;;;;;;10517839;28;20279;-77
2023/03/07 12:05:34;;;;;;;8.53;7.73;;;8.60;64.30;;;;;;10528374;28;20761;-78
2023/03/07 12:10:50;;;;;;;9.23;8.43;;;8.60;65.10;;;;;;10506802;28;20239;-79
2023/03/07 12:16:02;;;;;;;7.77;7.07;;;8.60;65.10;;;;;;10502130;28;20261;-79
2023/03/07 12:21:22;;;;;;;9.03;8.23;;;8.60;63.20;;;;;;10537172;28;20221;-79
2023/03/07 12:26:31;;;;;;;9.07;8.23;;;8.60;64.50;;;;;;10523264;28;20283;-79
2023/03/07 12:31:38;;;;;;;9.37;8.57;;;8.60;63.60;;;;;;10504822;28;20245;-79
2023/03/07 12:36:46;;;;;;;9.97;8.97;;;8.60;64.40;;;;;;10537927;28;20612;-79
2023/03/07 12:41:57;;;;;;;8.40;7.70;;;8.80;63.10;;;;;;10522175;28;20222;-80
2023/03/07 12:47:10;;;;;;;8.67;7.87;;;9.10;62.90;;;;;;10508529;28;20221;-79
2023/03/07 12:52:22;;;;;;;8.93;7.83;;;9.20;64.00;;;;;;10528741;28;20196;-80
2023/03/07 12:57:31;;;;;;;9.60;8.33;;;9.50;62.20;;;;;;10523225;28;20223;-79
2023/03/07 13:02:39;;;;;;;11.70;10.60;;;9.50;62.40;;;;;;10516154;28;20265;-80
2023/03/07 13:07:42;;;;;;;9.10;8.30;;;9.50;64.40;;;;;;10524458;28;20224;-78
2023/03/07 13:12:46;;;;;;;8.87;7.97;;;9.60;64.10;;;;;;10494842;28;20210;-80
2023/03/07 13:17:59;;;;;;;9.07;7.70;;;9.70;62.80;;;;;;10506476;28;20223;-80
2023/03/07 13:23:27;;;;;;;9.93;8.50;;;9.70;61.50;;;;;;10515904;28;20223;-80
2023/03/07 13:28:51;;;;;;;7.03;6.33;;;9.70;61.50;;;;;;10499270;28;20220;-78
2023/03/07 13:33:54;;;;;;;7.97;6.60;;;9.60;61.90;;;;;;10518730;28;20231;-80
2023/03/07 13:38:56;;;;;;;8.83;7.93;;;9.60;61.40;;;;;;10537717;28;20228;-80
2023/03/07 13:44:02;;;;;;;7.53;6.83;;;9.60;61.80;;;;;;10499125;28;20291;-80
2023/03/07 13:49:05;;;;;;;7.10;6.40;;;9.50;62.30;;;;;;10519727;28;20733;-80
2023/03/07 13:54:11;;;;;;;7.93;6.60;;;9.50;62.40;;;;;;10517741;28;20653;-80
2023/03/07 13:59:23;;;;;;;7.40;6.53;;;9.50;63.30;;;;;;10490336;28;20228;-80
2023/03/07 14:04:29;;;;;;;6.33;5.83;;;9.40;63.10;;;;;;10539273;28;20231;-80
2023/03/07 14:09:39;;;;;;;8.07;6.60;;;9.50;63.50;;;;;;10498342;28;20243;-80
2023/03/07 14:14:54;;;;;;;7.20;6.27;;;9.50;62.50;;;;;;10514531;28;20644;-80
2023/03/07 14:20:08;;;;;;;7.00;6.33;;;9.50;62.70;;;;;;10489207;28;20223;-80
2023/03/07 14:25:16;;;;;;;6.80;6.20;;;9.50;63.40;;;;;;10523846;28;20233;-80
2023/03/07 14:30:20;;;;;;;6.07;5.57;;;9.70;62.30;;;;;;10520835;28;20225;-80
2023/03/07 14:35:38;;;;;;;6.30;5.70;;;9.70;61.90;;;;;;10511811;28;20197;-80
2023/03/07 14:40:50;;;;;;;6.67;5.97;;;9.80;62.40;;;;;;10557594;22;20237;-83
2023/03/07 14:46:00;;;;;;;6.70;5.30;;;9.90;61.00;;;;;;10547115;28;20224;-84
2023/03/07 14:51:11;;;;;;;5.80;5.27;;;9.90;63.60;;;;;;10545945;28;20259;-84
2023/03/07 14:56:21;;;;;;;5.93;5.33;;;9.90;61.60;;;;;;10507237;28;20279;-84
2023/03/07 15:01:30;;;;;;;6.13;5.57;;;9.80;62.90;;;;;;10500798;28;20226;-84
2023/03/07 15:06:42;;;;;;;5.60;5.10;;;9.70;62.60;;;;;;10551753;28;20205;-84
2023/03/07 15:11:51;;;;;;;5.43;4.93;;;9.70;62.30;;;;;;10491343;28;20701;-84
2023/03/07 15:16:57;;;;;;;5.53;5.10;;;9.60;63.40;;;;;;10530535;28;20665;-85
2023/03/07 15:22:02;;;;;;;5.47;4.97;;;9.60;63.30;;;;;;10493711;28;20334;-82
2023/03/07 15:27:09;;;;;;;6.10;5.50;;;9.70;62.60;;;;;;10551192;28;20259;-83
2023/03/07 15:32:53;;;;;;;6.70;6.20;;;9.70;64.30;;;;;;10496313;28;20202;-86
2023/03/07 15:37:56;;;;;;;5.40;4.83;;;9.70;64.20;;;;;;10546766;28;20224;-84
2023/03/07 15:43:16;;;;;;;6.37;5.47;;;9.60;64.70;;;;;;10516132;28;20284;-85
2023/03/07 15:48:27;;;;;;;6.53;6.00;;;9.60;63.70;;;;;;10519815;28;20224;-85
2023/03/07 15:53:32;;;;;;;6.33;5.73;;;9.50;64.50;;;;;;10521003;28;20200;-85
2023/03/07 15:58:36;;;;;;;6.40;4.73;;;9.50;65.30;;;;;;10523828;28;20219;-85
2023/03/07 16:03:51;;;;;;;5.80;5.30;;;9.50;65.60;;;;;;10554769;28;20230;-86
2023/03/07 16:08:53;;;;;;;6.50;5.40;;;9.60;65.30;;;;;;10548757;28;20223;-86
2023/03/07 16:13:55;;;;;;;6.67;5.97;;;9.50;65.90;;;;;;10554286;28;20258;-85
2023/03/07 16:19:33;;;;;;;6.00;5.40;;;9.50;66.10;;;;;;10533557;28;20609;-86
2023/03/07 16:24:44;;;;;;;4.73;4.33;;;9.50;65.40;;;;;;10410718;28;20577;-86
2023/03/07 16:30:25;;;;;;;8.13;7.33;;;9.40;64.50;;;;;;10400977;28;20323;-86
2023/03/07 16:36:22;;;;;;;6.73;5.60;;;9.40;65.80;;;;;;10421756;28;20212;-87
2023/03/07 16:41:28;;;;;;;5.90;5.40;;;9.30;65.60;;;;;;10347133;28;20304;-86
2023/03/07 16:46:38;;;;;;;5.83;5.33;;;9.30;64.90;;;;;;10480601;28;20202;-86
2023/03/07 16:51:51;;;;;;;7.73;5.40;;;9.20;66.70;;;;;;10529282;28;20234;-86
2023/03/07 16:57:18;;;;;;;8.10;5.87;;;9.10;66.90;;;;;;10480616;28;20203;-85
2023/03/07 17:02:59;;;;;;;6.03;5.43;;;9.10;66.50;;;;;;10535704;28;20215;-86
2023/03/07 17:14:08;;;;;;;6.10;5.60;;;9.10;68.50;;;;;;10535180;28;20198;-86
2023/03/07 17:19:40;;;;;;;6.30;5.70;;;9.00;67.20;;;;;;10458071;28;20238;-86
2023/03/07 17:25:27;;;;;;;6.83;6.27;;;8.90;67.90;;;;;;10525508;28;20242;-86
2023/03/07 17:30:34;;;;;;;6.53;5.63;;;8.90;66.10;;;;;;10343072;28;20222;-85
2023/03/07 17:35:45;;;;;;;8.20;5.77;;;8.70;67.50;;;;;;10374945;28;20601;-85
2023/03/07 17:41:00;;;;;;;9.13;6.47;;;8.60;68.10;;;;;;10486173;28;20321;-85
2023/03/07 17:46:10;;;;;;;8.73;7.83;;;8.60;69.10;;;;;;10534363;28;20229;-84
2023/03/07 17:51:15;;;;;;;7.70;7.00;;;8.50;67.90;;;;;;10528869;28;20602;-85
2023/03/07 17:56:18;;;;;;;7.67;6.97;;;8.50;69.10;;;;;;10532383;28;20766;-84
2023/03/07 18:01:24;;;;;;;6.93;6.23;;;8.40;68.50;;;;;;10526851;28;20226;-84
2023/03/07 18:06:27;;;;;;;9.20;7.40;;;8.40;68.60;;;;;;10513686;28;20224;-84
2023/03/07 18:11:34;;;;;;;19.00;15.37;;;8.30;69.00;;;;;;10530993;28;20332;-85
2023/03/07 18:16:47;;;;;;;13.40;12.00;;;8.30;69.50;;;;;;10545552;28;20196;-85
2023/03/07 18:21:50;;;;;;;12.63;8.23;;;8.30;69.00;;;;;;10524738;28;20650;-82
2023/03/07 18:26:53;;;;;;;9.37;7.63;;;8.40;68.70;;;;;;10511726;28;20192;-84
2023/03/07 18:32:02;;;;;;;6.87;6.27;;;8.40;68.40;;;;;;10512664;28;20199;-84
2023/03/07 18:37:13;;;;;;;12.27;10.97;;;8.40;67.30;;;;;;10493257;28;20178;-84
2023/03/07 18:42:54;;;;;;;11.30;10.20;;;8.30;67.10;;;;;;10505587;28;20684;-84
2023/03/07 18:59:58;;;;;;;13.87;10.83;;;8.10;66.90;;;;;;10419334;28;20226;-85
2023/03/07 19:19:01;;;;;;;7.00;6.37;;;8.10;66.90;;;;;;10212674;29;20225;-84
2023/03/07 19:25:41;;;;;;;8.00;7.27;;;8.10;66.90;;;;;;10235223;28;20233;-84
2023/03/07 20:05:15;;;;;;;8.40;7.60;;;8.00;67.90;;;;;;10425843;28;20699;-83
2023/03/07 20:42:55;;;;;;;6.90;6.23;;;8.00;68.00;;;;;;1586067;22;20530;-81
2023/03/07 20:48:02;;;;;;;9.13;6.37;;;8.10;66.70;;;;;;10555071;28;20207;-83
2023/03/07 20:53:05;;;;;;;6.80;6.20;;;8.10;67.80;;;;;;10557966;28;20244;-81
2023/03/07 20:58:07;;;;;;;6.60;5.80;;;8.10;65.80;;;;;;10579510;28;20289;-81
2023/03/07 21:03:12;;;;;;;6.37;5.87;;;8.10;66.70;;;;;;10541047;28;20249;-82
2023/03/07 21:08:15;;;;;;;6.60;6.10;;;8.10;66.10;;;;;;10562544;28;20254;-84
2023/03/07 21:13:18;;;;;;;6.20;5.60;;;8.10;67.30;;;;;;10552037;28;20194;-82
2023/03/07 21:18:22;;;;;;;7.90;5.90;;;8.10;65.30;;;;;;10557515;28;20288;-81
2023/03/07 21:23:24;;;;;;;6.67;6.07;;;8.10;66.00;;;;;;10572409;28;20543;-81
2023/03/07 21:28:26;;;;;;;7.30;5.97;;;8.10;64.60;;;;;;10578804;28;20228;-83
2023/03/07 21:33:30;;;;;;;9.10;6.60;;;8.10;64.70;;;;;;10545312;28;20201;-83
2023/03/07 21:38:35;;;;;;;6.57;5.97;;;8.10;64.90;;;;;;10582718;28;20227;-82
2023/03/07 21:43:37;;;;;;;6.43;5.70;;;8.00;64.50;;;;;;10570936;28;20338;-80
2023/03/07 21:48:41;;;;;;;7.40;6.70;;;8.00;63.60;;;;;;10560745;28;20218;-83
2023/03/07 21:53:44;;;;;;;7.07;6.10;;;8.00;64.60;;;;;;10584133;28;20204;-82
2023/03/07 21:58:48;;;;;;;8.27;6.60;;;7.90;64.80;;;;;;10562705;28;20272;-82
2023/03/07 22:03:53;;;;;;;7.07;6.37;;;7.90;63.60;;;;;;10590156;28;20269;-82
2023/03/07 22:08:55;;;;;;;6.77;6.07;;;7.90;63.60;;;;;;10570003;28;20227;-82
2023/03/07 22:13:57;;;;;;;6.47;5.90;;;7.80;64.10;;;;;;10572312;28;20200;-81
2023/03/07 22:19:01;;;;;;;6.70;5.70;;;7.80;63.80;;;;;;10591838;28;20302;-84
2023/03/07 22:24:06;;;;;;;6.97;6.37;;;7.90;64.10;;;;;;10558048;28;20234;-86
2023/03/07 22:29:08;;;;;;;8.60;7.17;;;7.80;64.40;;;;;;10571287;28;20216;-81
2023/03/07 22:34:11;;;;;;;7.90;6.90;;;7.80;64.30;;;;;;10552815;28;20197;-83
2023/03/07 22:39:13;;;;;;;8.47;7.63;;;7.70;65.60;;;;;;10549026;28;20228;-81
2023/03/07 22:44:18;;;;;;;8.93;7.57;;;7.70;64.10;;;;;;10536692;28;20230;-81
2023/03/07 22:49:21;;;;;;;9.00;8.10;;;7.60;65.20;;;;;;10558973;28;20395;-82
2023/03/07 22:54:24;;;;;;;8.40;7.60;;;7.50;65.30;;;;;;10587374;28;20200;-82
2023/03/07 22:59:26;;;;;;;8.93;8.00;;;7.50;65.60;;;;;;10551440;28;20311;-83
2023/03/07 23:04:29;;;;;;;9.40;8.50;;;7.40;65.90;;;;;;10556461;28;20224;-85
2023/03/07 23:09:31;;;;;;;9.47;8.47;;;7.40;66.00;;;;;;10575113;28;20212;-84
2023/03/07 23:14:33;;;;;;;9.20;8.30;;;7.40;66.30;;;;;;10581857;28;20200;-83
2023/03/07 23:19:37;;;;;;;9.27;8.23;;;7.40;66.80;;;;;;10580008;28;20216;-82
2023/03/07 23:24:39;;;;;;;10.77;9.77;;;7.40;66.90;;;;;;10573855;28;20216;-84
2023/03/07 23:29:41;;;;;;;10.80;9.50;;;7.30;67.50;;;;;;10553115;28;20821;-83
2023/03/07 23:34:44;;;;;;;9.53;8.53;;;7.30;67.50;;;;;;10583628;28;20200;-81
2023/03/07 23:39:47;;;;;;;13.23;10.37;;;7.30;67.30;;;;;;10555344;28;20219;-82
2023/03/07 23:44:49;;;;;;;11.37;10.27;;;7.10;68.10;;;;;;10563777;28;20335;-82
2023/03/07 23:49:52;;;;;;;10.73;9.63;;;7.10;69.10;;;;;;10551307;28;20228;-82
2023/03/07 23:54:55;;;;;;;11.60;10.37;;;7.10;68.00;;;;;;10590925;28;20210;-82
2023/03/07 23:59:57;;;;;;;10.90;9.80;;;7.00;69.60;;;;;;10588682;28;20305;-83
